createdAt,value
2023-09-24T00:01:54.283Z,100417.94
2023-09-24T00:04:57.321Z,100410.44
2023-09-24T00:07:59.800Z,100411.25
2023-09-24T00:11:04.091Z,100407.16
2023-09-24T00:14:06.713Z,100418.63
2023-09-24T00:17:09.986Z,100424.25
2023-09-24T00:20:12.791Z,100423.50
2023-09-24T00:23:18.037Z,100422.00
2023-09-24T00:26:20.540Z,100427.75
2023-09-24T00:29:24.750Z,100419.78
2023-09-24T00:32:27.343Z,100424.91
2023-09-24T00:35:31.321Z,100419.59
2023-09-24T00:38:33.954Z,100415.00
2023-09-24T00:41:37.732Z,100418.56
2023-09-24T00:44:40.244Z,100416.53
2023-09-24T00:47:44.395Z,100405.56
2023-09-24T00:50:46.936Z,100395.97
2023-09-24T00:53:50.480Z,100392.28
2023-09-24T00:56:54.134Z,100383.03
2023-09-24T00:59:56.690Z,100368.16
2023-09-24T01:02:59.406Z,100384.03
2023-09-24T01:06:02.025Z,100379.78
2023-09-24T01:09:07.589Z,100365.16
2023-09-24T01:12:21.739Z,100369.63
2023-09-24T01:15:26.538Z,100368.47
2023-09-24T01:18:29.336Z,100365.16
2023-09-24T01:21:33.613Z,100361.84
2023-09-24T01:24:36.407Z,100356.06
2023-09-24T01:27:39.079Z,100354.22
2023-09-24T01:30:41.741Z,100349.47
2023-09-24T01:33:45.295Z,100356.06
2023-09-24T01:36:48.161Z,100364.06
2023-09-24T01:39:52.988Z,100338.06
2023-09-24T01:43:01.548Z,100338.31
2023-09-24T01:46:07.954Z,100335.97
2023-09-24T01:49:11.576Z,100330.56
2023-09-24T01:52:15.388Z,100338.41
2023-09-24T01:55:17.976Z,100326.97
2023-09-24T01:58:20.468Z,100314.78
2023-09-24T02:01:24.028Z,100332.41
2023-09-24T02:04:26.650Z,100321.56
2023-09-24T02:07:29.174Z,100317.72
2023-09-24T02:10:31.760Z,100311.94
2023-09-24T02:13:34.126Z,100304.44
2023-09-24T02:16:39.863Z,100308.38
2023-09-24T02:19:45.967Z,100317.84
2023-09-24T02:22:52.213Z,100320.00
2023-09-24T02:25:54.892Z,100313.31
2023-09-24T02:28:57.465Z,100307.94
2023-09-24T02:32:00.046Z,100305.78
2023-09-24T02:35:04.305Z,100314.66
2023-09-24T02:38:06.959Z,100312.22
2023-09-24T02:41:09.387Z,100324.53
2023-09-24T02:44:12.075Z,100318.34
2023-09-24T02:47:16.019Z,100335.06
2023-09-24T02:50:19.485Z,100327.63
2023-09-24T02:53:22.031Z,100320.28
2023-09-24T02:56:24.697Z,100305.66
2023-09-24T02:59:27.245Z,100301.72
2023-09-24T03:02:29.922Z,100301.72
2023-09-24T03:05:33.666Z,100299.75
2023-09-24T03:08:37.431Z,100298.44
2023-09-24T03:11:40.181Z,100298.69
2023-09-24T03:14:43.101Z,100279.56
2023-09-24T03:17:48.012Z,100271.75
2023-09-24T03:20:51.841Z,100282.50
2023-09-24T03:23:55.306Z,100283.66
2023-09-24T03:26:58.866Z,100280.69
2023-09-24T03:30:02.207Z,100281.03
2023-09-24T03:33:06.170Z,100278.84
2023-09-24T03:36:11.626Z,100299.84
2023-09-24T03:39:14.706Z,100321.84
2023-09-24T03:42:17.312Z,100329.97
2023-09-24T03:45:20.850Z,100341.78
2023-09-24T03:48:23.816Z,100322.78
2023-09-24T03:51:27.304Z,100336.00
2023-09-24T03:54:29.927Z,100342.31
2023-09-24T03:57:32.566Z,100332.56
2023-09-24T04:00:35.146Z,100328.16
2023-09-24T04:03:38.689Z,100329.19
2023-09-24T04:06:42.072Z,100320.75
2023-09-24T04:09:45.034Z,100342.03
2023-09-24T04:12:48.126Z,100352.53
2023-09-24T04:15:53.960Z,100334.06
2023-09-24T04:18:57.078Z,100324.53
2023-09-24T04:21:59.653Z,100332.44
2023-09-24T04:25:03.264Z,100338.38
2023-09-24T04:28:06.020Z,100334.91
2023-09-24T04:31:08.424Z,100329.97
2023-09-24T04:34:13.767Z,100331.28
2023-09-24T04:37:17.820Z,100343.16
2023-09-24T04:40:20.703Z,100348.69
2023-09-24T04:43:23.452Z,100362.69
2023-09-24T04:46:27.159Z,100364.72
2023-09-24T04:49:29.661Z,100370.28
2023-09-24T04:52:33.041Z,100377.19
2023-09-24T04:55:35.419Z,100375.16
2023-09-24T04:58:37.894Z,100357.38
2023-09-24T05:01:40.369Z,100359.97
2023-09-24T05:04:44.422Z,100355.63
2023-09-24T05:07:46.857Z,100350.25
2023-09-24T05:10:50.978Z,100348.94
2023-09-24T05:13:53.624Z,100351.91
2023-09-24T05:16:56.098Z,100354.09
2023-09-24T05:19:58.816Z,100365.53
2023-09-24T05:23:01.809Z,100375.34
2023-09-24T05:26:04.183Z,100383.81
2023-09-24T05:29:06.877Z,100383.13
2023-09-24T05:32:09.475Z,100381.94
2023-09-24T05:35:12.333Z,100383.81
2023-09-24T05:38:14.716Z,100396.31
2023-09-24T05:41:17.602Z,100385.19
2023-09-24T05:44:21.714Z,100394.69
2023-09-24T05:47:24.330Z,100402.88
2023-09-24T05:50:26.874Z,100410.25
2023-09-24T05:53:29.396Z,100411.22
2023-09-24T05:56:31.961Z,100401.28
2023-09-24T05:59:34.644Z,100393.53
2023-09-24T06:02:37.175Z,100394.97
2023-09-24T06:05:40.237Z,100410.81
2023-09-24T06:08:42.789Z,100412.31
2023-09-24T06:11:47.171Z,100400.50
2023-09-24T06:14:49.688Z,100406.75
2023-09-24T06:17:52.336Z,100396.66
2023-09-24T06:20:55.435Z,100408.28
2023-09-24T06:23:58.713Z,100409.97
2023-09-24T06:27:01.260Z,100408.50
2023-09-24T06:30:06.074Z,100428.88
2023-09-24T06:33:08.748Z,100419.81
2023-09-24T06:36:11.190Z,100392.53
2023-09-24T06:39:15.525Z,100394.50
2023-09-24T06:42:18.007Z,100421.34
2023-09-24T06:45:20.384Z,100430.88
2023-09-24T06:48:23.914Z,100435.00
2023-09-24T06:51:26.464Z,100433.19
2023-09-24T06:54:29.001Z,100456.94
2023-09-24T06:57:32.763Z,100444.81
2023-09-24T07:00:35.540Z,100465.16
2023-09-24T07:03:38.546Z,100469.78
2023-09-24T07:06:42.183Z,100471.63
2023-09-24T07:09:47.394Z,100479.44
2023-09-24T07:12:49.749Z,100482.59
2023-09-24T07:15:52.156Z,100484.16
2023-09-24T07:18:55.217Z,100476.31
2023-09-24T07:21:58.643Z,100471.28
2023-09-24T07:25:01.109Z,100464.28
2023-09-24T07:28:03.683Z,100476.72
2023-09-24T07:31:15.574Z,100479.69
2023-09-24T07:34:18.055Z,100493.09
2023-09-24T07:37:20.696Z,100504.72
2023-09-24T07:40:23.159Z,100491.47
2023-09-24T07:43:25.589Z,100468.28
2023-09-24T07:46:28.066Z,100473.94
2023-09-24T07:49:30.709Z,100494.16
2023-09-24T07:52:35.268Z,100491.91
2023-09-24T07:55:38.066Z,100482.91
2023-09-24T07:58:43.391Z,100486.91
2023-09-24T08:01:45.781Z,100492.53
2023-09-24T08:04:48.186Z,100501.50
2023-09-24T08:07:50.631Z,100498.09
2023-09-24T08:10:53.493Z,100502.22
2023-09-24T08:13:56.394Z,100511.16
2023-09-24T08:16:59.218Z,100515.50
2023-09-24T08:20:01.733Z,100507.41
2023-09-24T08:23:04.839Z,100512.50
2023-09-24T08:26:07.322Z,100512.50
2023-09-24T08:29:10.170Z,100524.00
2023-09-24T08:32:12.607Z,100533.97
2023-09-24T08:35:15.081Z,100544.06
2023-09-24T08:38:17.429Z,100547.97
2023-09-24T08:41:19.927Z,100549.50
2023-09-24T08:44:22.615Z,100553.38
2023-09-24T08:47:25.050Z,100565.16
2023-09-24T08:50:27.500Z,100555.84
2023-09-24T08:53:30.971Z,100573.66
2023-09-24T08:56:33.483Z,100571.47
2023-09-24T08:59:37.041Z,100573.53
2023-09-24T09:02:44.393Z,100572.94
2023-09-24T09:05:47.787Z,100573.75
2023-09-24T09:08:53.813Z,100572.47
2023-09-24T09:11:56.888Z,100571.63
2023-09-24T09:14:59.501Z,100569.81
2023-09-24T09:18:02.462Z,100569.00
2023-09-24T09:21:05.258Z,100572.56
2023-09-24T09:24:21.533Z,100578.59
2023-09-24T09:27:24.038Z,100584.34
2023-09-24T09:30:26.513Z,100582.31
2023-09-24T09:33:30.053Z,100593.59
2023-09-24T09:36:36.341Z,100586.16
2023-09-24T09:39:38.760Z,100586.97
2023-09-24T09:42:41.224Z,100579.16
2023-09-24T09:45:46.623Z,100584.50
2023-09-24T09:48:55.952Z,100581.13
2023-09-24T09:52:02.252Z,100589.22
2023-09-24T09:55:05.992Z,100597.34
2023-09-24T09:58:21.610Z,100598.06
2023-09-24T10:01:25.873Z,100599.28
2023-09-24T10:04:30.732Z,100583.88
2023-09-24T10:07:37.580Z,100597.19
2023-09-24T10:10:41.841Z,100596.84
2023-09-24T10:13:45.655Z,100599.22
2023-09-24T10:16:48.529Z,100601.72
2023-09-24T10:19:52.211Z,100602.97
2023-09-24T10:22:57.270Z,100593.59
2023-09-24T10:26:06.106Z,100595.84
2023-09-24T10:29:09.503Z,100599.69
2023-09-24T10:32:16.231Z,100601.78
2023-09-24T10:35:19.125Z,100605.22
2023-09-24T10:38:21.733Z,100609.28
2023-09-24T10:41:24.428Z,100606.44
2023-09-24T10:44:28.984Z,100614.53
2023-09-24T10:47:32.626Z,100626.00
2023-09-24T10:50:35.178Z,100640.06
2023-09-24T10:53:37.828Z,100641.28
2023-09-24T10:56:40.324Z,100639.88
2023-09-24T10:59:42.708Z,100632.97
2023-09-24T11:02:46.736Z,100614.00
2023-09-24T11:05:50.019Z,100613.94
2023-09-24T11:08:52.837Z,100605.22
2023-09-24T11:11:55.309Z,100596.50
2023-09-24T11:15:14.510Z,100611.09
2023-09-24T11:18:18.115Z,100619.19
2023-09-24T11:21:21.045Z,100618.06
2023-09-24T11:24:23.989Z,100617.94
2023-09-24T11:27:26.430Z,100619.97
2023-09-24T11:30:47.453Z,100618.38
2023-09-24T11:33:57.706Z,100633.88
2023-09-24T11:37:00.284Z,100637.16
2023-09-24T11:40:02.764Z,100642.78
2023-09-24T11:43:15.306Z,100635.28
2023-09-24T11:46:27.158Z,100647.41
2023-09-24T11:49:29.649Z,100654.16
2023-09-24T11:52:33.170Z,100651.66
2023-09-24T11:55:36.225Z,100659.66
2023-09-24T11:58:39.564Z,100662.31
2023-09-24T12:01:42.618Z,100660.25
2023-09-24T12:04:47.028Z,100663.94
2023-09-24T12:07:51.700Z,100669.28
2023-09-24T12:10:54.223Z,100669.53
2023-09-24T12:13:57.726Z,100669.53
2023-09-24T12:17:00.192Z,100666.81
2023-09-24T12:20:02.893Z,100670.38
2023-09-24T12:23:07.590Z,100665.56
2023-09-24T12:26:10.090Z,100680.16
2023-09-24T12:29:12.562Z,100679.97
2023-09-24T12:32:15.144Z,100670.38
2023-09-24T12:35:17.835Z,100669.13
2023-09-24T12:38:20.302Z,100665.13
2023-09-24T12:41:23.573Z,100670.28
2023-09-24T12:44:26.021Z,100653.72
2023-09-24T12:47:34.249Z,100652.22
2023-09-24T12:50:37.112Z,100664.53
2023-09-24T12:53:42.156Z,100668.56
2023-09-24T12:56:44.967Z,100657.47
2023-09-24T12:59:47.494Z,100654.28
2023-09-24T13:02:50.129Z,100656.34
2023-09-24T13:05:52.684Z,100652.69
2023-09-24T13:08:55.182Z,100660.22
2023-09-24T13:11:59.658Z,100661.69
2023-09-24T13:15:02.384Z,100666.59
2023-09-24T13:18:05.130Z,100669.13
2023-09-24T13:21:07.730Z,100674.94
2023-09-24T13:24:10.254Z,100670.47
2023-09-24T13:27:12.719Z,100670.47
2023-09-24T13:30:15.214Z,100661.69
2023-09-24T13:33:17.830Z,100649.63
2023-09-24T13:36:20.450Z,100665.94
2023-09-24T13:39:23.327Z,100663.97
2023-09-24T13:42:25.843Z,100658.72
2023-09-24T13:45:28.941Z,100663.41
2023-09-24T13:48:31.953Z,100659.63
2023-09-24T13:51:37.263Z,100658.25
2023-09-24T13:54:40.203Z,100662.25
2023-09-24T13:57:42.660Z,100660.13
2023-09-24T14:00:53.286Z,100673.91
2023-09-24T14:03:56.125Z,100678.00
2023-09-24T14:06:58.952Z,100674.00
2023-09-24T14:10:20.120Z,100670.56
2023-09-24T14:13:22.592Z,100673.66
2023-09-24T14:16:25.003Z,100677.31
2023-09-24T14:19:27.505Z,100684.78
2023-09-24T14:22:29.880Z,100685.59
2023-09-24T14:25:33.590Z,100691.97
2023-09-24T14:28:36.113Z,100689.44
2023-09-24T14:31:38.542Z,100701.56
2023-09-24T14:34:41.017Z,100697.41
2023-09-24T14:37:43.503Z,100696.81
2023-09-24T14:40:45.923Z,100706.97
2023-09-24T14:43:48.537Z,100712.53
2023-09-24T14:46:51.082Z,100709.31
2023-09-24T14:49:53.525Z,100713.19
2023-09-24T14:52:56.087Z,100715.69
2023-09-24T14:56:01.496Z,100718.75
2023-09-24T14:59:04.081Z,100720.72
2023-09-24T15:02:06.654Z,100720.91
2023-09-24T15:05:09.630Z,100716.91
2023-09-24T15:08:12.266Z,100717.53
2023-09-24T15:11:14.738Z,100724.97
2023-09-24T15:14:18.840Z,100728.13
2023-09-24T15:17:21.333Z,100722.78
2023-09-24T15:20:23.786Z,100731.63
2023-09-24T15:23:26.617Z,100738.84
2023-09-24T15:26:29.174Z,100746.31
2023-09-24T15:29:31.754Z,100745.69
2023-09-24T15:32:34.273Z,100758.06
2023-09-24T15:35:37.234Z,100757.25
2023-09-24T15:38:39.702Z,100759.16
2023-09-24T15:41:45.268Z,100761.97
2023-09-24T15:44:47.757Z,100776.50
2023-09-24T15:47:50.413Z,100772.38
2023-09-24T15:50:53.311Z,100775.50
2023-09-24T15:53:55.929Z,100783.19
2023-09-24T15:56:58.358Z,100770.91
2023-09-24T16:00:00.844Z,100775.66
2023-09-24T16:03:03.732Z,100776.88
2023-09-24T16:06:06.367Z,100789.25
2023-09-24T16:09:08.992Z,100782.59
2023-09-24T16:12:11.518Z,100786.69
2023-09-24T16:15:15.414Z,100792.31
2023-09-24T16:18:17.927Z,100793.78
2023-09-24T16:21:20.452Z,100789.28
2023-09-24T16:24:22.933Z,100781.72
2023-09-24T16:27:25.408Z,100790.38
2023-09-24T16:30:27.882Z,100789.16
2023-09-24T16:33:30.395Z,100792.66
2023-09-24T16:36:34.794Z,100794.09
2023-09-24T16:39:37.523Z,100805.38
2023-09-24T16:42:40.122Z,100805.00
2023-09-24T16:45:49.865Z,100805.88
2023-09-24T16:48:52.393Z,100808.25
2023-09-24T16:51:54.837Z,100806.69
2023-09-24T16:54:57.257Z,100811.72
2023-09-24T16:58:00.183Z,100806.13
2023-09-24T17:01:02.720Z,100810.31
2023-09-24T17:04:05.597Z,100813.16
2023-09-24T17:07:08.124Z,100816.63
2023-09-24T17:10:11.968Z,100832.28
2023-09-24T17:13:16.147Z,100836.13
2023-09-24T17:16:20.360Z,100841.13
2023-09-24T17:19:23.925Z,100834.94
2023-09-24T17:22:27.593Z,100834.34
2023-09-24T17:25:30.062Z,100841.22
2023-09-24T17:28:32.476Z,100843.63
2023-09-24T17:31:35.048Z,100840.41
2023-09-24T17:34:37.598Z,100839.91
2023-09-24T17:37:40.174Z,100842.28
2023-09-24T17:40:42.857Z,100830.41
2023-09-24T17:43:45.341Z,100829.63
2023-09-24T17:46:48.532Z,100838.09
2023-09-24T17:49:51.007Z,100832.44
2023-09-24T17:52:53.585Z,100822.78
2023-09-24T17:55:56.684Z,100828.03
2023-09-24T17:58:59.053Z,100827.63
2023-09-24T18:02:01.651Z,100838.72
2023-09-24T18:05:04.597Z,100843.72
2023-09-24T18:08:08.303Z,100850.16
2023-09-24T18:11:10.815Z,100852.59
2023-09-24T18:14:13.493Z,100846.34
2023-09-24T18:17:15.983Z,100847.34
2023-09-24T18:20:18.449Z,100864.47
2023-09-24T18:23:21.237Z,100873.09
2023-09-24T18:26:23.675Z,100860.44
2023-09-24T18:29:26.138Z,100880.16
2023-09-24T18:32:28.617Z,100866.44
2023-09-24T18:35:31.157Z,100879.50
2023-09-24T18:38:33.734Z,100869.06
2023-09-24T18:41:36.211Z,100872.25
2023-09-24T18:44:38.790Z,100874.09
2023-09-24T18:47:41.356Z,100875.13
2023-09-24T18:50:44.157Z,100881.94
2023-09-24T18:53:47.421Z,100885.72
2023-09-24T18:56:50.231Z,100895.56
2023-09-24T18:59:53.452Z,100908.25
2023-09-24T19:02:56.139Z,100894.59
2023-09-24T19:05:58.750Z,100889.00
2023-09-24T19:09:01.306Z,100879.94
2023-09-24T19:12:03.773Z,100885.19
2023-09-24T19:15:08.114Z,100884.16
2023-09-24T19:18:12.060Z,100868.69
2023-09-24T19:21:14.505Z,100888.75
2023-09-24T19:24:17.012Z,100881.75
2023-09-24T19:27:20.165Z,100892.81
2023-09-24T19:30:22.864Z,100905.88
2023-09-24T19:33:25.444Z,100889.19
2023-09-24T19:36:28.038Z,100881.34
2023-09-24T19:39:30.642Z,100902.06
2023-09-24T19:42:35.351Z,100917.53
2023-09-24T19:45:37.973Z,100918.09
2023-09-24T19:48:40.673Z,100916.44
2023-09-24T19:51:43.552Z,100925.31
2023-09-24T19:54:46.137Z,100919.69
2023-09-24T19:57:48.613Z,100917.69
2023-09-24T20:00:51.496Z,100917.09
2023-09-24T20:03:53.974Z,100920.94
2023-09-24T20:06:59.577Z,100926.38
2023-09-24T20:10:02.717Z,100946.72
2023-09-24T20:13:05.308Z,100943.50
2023-09-24T20:16:07.913Z,100960.41
2023-09-24T20:19:10.781Z,100963.22
2023-09-24T20:22:13.239Z,100946.94
2023-09-24T20:25:27.589Z,100946.94
2023-09-24T20:28:41.871Z,100964.44
2023-09-24T20:31:50.646Z,100960.81
2023-09-24T20:34:53.184Z,100963.25
2023-09-24T20:37:55.628Z,100963.44
2023-09-24T20:41:15.180Z,100964.03
2023-09-24T20:44:17.786Z,100967.25
2023-09-24T20:47:20.998Z,100963.44
2023-09-24T20:50:23.420Z,100962.00
2023-09-24T20:53:25.950Z,100960.31
2023-09-24T20:56:28.836Z,100961.94
2023-09-24T20:59:31.858Z,100958.16
2023-09-24T21:02:34.328Z,100949.88
2023-09-24T21:05:37.200Z,100952.06
2023-09-24T21:08:39.593Z,100949.22
2023-09-24T21:11:42.052Z,100946.03
2023-09-24T21:14:44.842Z,100934.00
2023-09-24T21:17:47.445Z,100956.88
2023-09-24T21:20:53.067Z,100951.28
2023-09-24T21:23:55.468Z,100950.88
2023-09-24T21:26:58.092Z,100960.94
2023-09-24T21:30:00.721Z,100984.47
2023-09-24T21:33:03.370Z,100990.31
2023-09-24T21:36:06.950Z,101002.41
2023-09-24T21:39:09.707Z,101001.44
2023-09-24T21:42:12.985Z,101019.75
2023-09-24T21:45:15.482Z,101011.47
2023-09-24T21:48:17.944Z,101003.25
2023-09-24T21:51:20.520Z,100992.59
2023-09-24T21:54:23.006Z,100994.63
2023-09-24T21:57:25.539Z,100995.81
2023-09-24T22:00:32.144Z,100988.19
2023-09-24T22:03:34.911Z,100990.59
2023-09-24T22:06:37.605Z,100998.66
2023-09-24T22:09:40.757Z,100997.84
2023-09-24T22:12:43.168Z,100989.81
2023-09-24T22:15:46.710Z,100989.41
2023-09-24T22:18:49.684Z,100997.03
2023-09-24T22:21:52.836Z,100997.66
2023-09-24T22:24:55.331Z,100996.44
2023-09-24T22:27:57.774Z,101000.47
2023-09-24T22:31:06.840Z,100993.84
2023-09-24T22:34:09.321Z,100988.59
2023-09-24T22:37:11.806Z,100981.16
2023-09-24T22:40:15.666Z,100975.13
2023-09-24T22:43:26.087Z,100976.16
2023-09-24T22:46:29.527Z,100968.50
2023-09-24T22:49:32.064Z,100962.47
2023-09-24T22:52:34.945Z,100964.47
2023-09-24T22:55:37.421Z,100957.44
2023-09-24T22:58:39.905Z,100945.13
2023-09-24T23:01:42.452Z,100922.06
2023-09-24T23:04:44.926Z,100904.38
2023-09-24T23:07:47.544Z,100892.72
2023-09-24T23:10:50.016Z,100880.63
2023-09-24T23:13:52.392Z,100860.91
2023-09-24T23:16:54.884Z,100861.75
2023-09-24T23:19:57.346Z,100877.22
2023-09-24T23:22:59.850Z,100894.16
2023-09-24T23:26:02.201Z,100882.66
2023-09-24T23:29:05.212Z,100877.25
2023-09-24T23:32:07.671Z,100851.72
2023-09-24T23:35:10.147Z,100835.06
2023-09-24T23:38:12.625Z,100823.56
2023-09-24T23:41:15.068Z,100799.69
2023-09-24T23:44:17.443Z,100774.53
2023-09-24T23:47:19.923Z,100755.47
2023-09-24T23:50:22.304Z,100756.69
2023-09-24T23:53:24.670Z,100772.63
2023-09-24T23:56:27.386Z,100789.28
2023-09-24T23:59:29.865Z,100794.53
